createdAt,value
2018-04-16T00:00:17.606Z,11.48
2018-04-16T00:02:44.254Z,11.50
2018-04-16T00:05:10.927Z,11.68
2018-04-16T00:07:37.543Z,10.20
2018-04-16T00:10:04.157Z,11.30
2018-04-16T00:12:30.828Z,11.10
2018-04-16T00:14:57.454Z,11.05
2018-04-16T00:17:24.090Z,11.32
2018-04-16T00:19:50.740Z,10.95
2018-04-16T00:22:17.369Z,10.57
2018-04-16T00:24:44.051Z,11.30
2018-04-16T00:27:10.695Z,10.55
2018-04-16T00:29:37.328Z,11.10
2018-04-16T00:32:09.709Z,10.70
2018-04-16T00:34:41.999Z,10.82
2018-04-16T00:37:14.312Z,10.20
2018-04-16T00:39:46.817Z,11.05
2018-04-16T00:42:19.271Z,11.43
2018-04-16T00:44:51.754Z,11.52
2018-04-16T00:47:33.357Z,11.00
2018-04-16T00:50:05.697Z,11.20
2018-04-16T00:52:37.889Z,10.85
2018-04-16T00:55:20.195Z,11.85
2018-04-16T00:57:52.469Z,11.20
2018-04-16T01:00:24.767Z,11.00
2018-04-16T01:02:57.114Z,10.48
2018-04-16T01:05:29.512Z,11.30
2018-04-16T01:08:01.843Z,11.40
2018-04-16T01:10:34.097Z,10.80
2018-04-16T01:13:06.502Z,11.30
2018-04-16T01:15:38.835Z,12.05
2018-04-16T01:18:11.287Z,12.25
2018-04-16T01:20:43.566Z,11.63
2018-04-16T01:23:16.066Z,11.30
2018-04-16T01:25:48.435Z,11.27
2018-04-16T01:28:21.084Z,10.45
2018-04-16T01:30:53.539Z,10.50
2018-04-16T01:33:25.985Z,10.13
2018-04-16T01:35:58.432Z,9.82
2018-04-16T01:38:42.864Z,9.35
2018-04-16T01:41:15.428Z,10.90
2018-04-16T01:43:47.921Z,10.07
2018-04-16T01:46:20.275Z,10.20
2018-04-16T01:48:52.647Z,10.05
2018-04-16T01:51:24.965Z,9.95
2018-04-16T01:53:57.391Z,10.55
2018-04-16T01:56:29.804Z,9.70
2018-04-16T01:59:02.220Z,9.32
2018-04-16T02:01:34.685Z,9.68
2018-04-16T02:04:07.057Z,9.80
2018-04-16T02:06:39.434Z,9.75
2018-04-16T02:09:11.718Z,9.10
2018-04-16T02:11:44.026Z,10.23
2018-04-16T02:14:16.307Z,8.35
2018-04-16T02:16:48.496Z,9.90
2018-04-16T02:19:20.900Z,10.75
2018-04-16T02:21:53.217Z,9.80
2018-04-16T02:24:25.508Z,9.90
2018-04-16T02:27:07.045Z,9.98
2018-04-16T02:29:39.215Z,9.43
2018-04-16T02:32:11.554Z,10.57
2018-04-16T02:34:44.006Z,8.20
2018-04-16T02:37:16.493Z,9.85
2018-04-16T02:39:48.902Z,9.70
2018-04-16T02:42:21.322Z,9.27
2018-04-16T02:45:03.850Z,9.80
2018-04-16T02:47:36.120Z,10.32
2018-04-16T02:50:08.416Z,9.30
2018-04-16T02:52:40.803Z,9.93
2018-04-16T02:55:13.230Z,9.60
2018-04-16T02:57:45.491Z,9.90
2018-04-16T03:00:17.793Z,9.20
2018-04-16T03:02:49.966Z,9.55
2018-04-16T03:05:22.456Z,9.30
2018-04-16T03:07:54.754Z,9.23
2018-04-16T03:10:27.135Z,9.30
2018-04-16T03:12:59.540Z,9.32
2018-04-16T03:15:31.981Z,9.52
2018-04-16T03:18:04.288Z,8.60
2018-04-16T03:20:36.626Z,11.18
2018-04-16T03:23:08.973Z,9.05
2018-04-16T03:25:41.356Z,10.00
2018-04-16T03:28:13.778Z,9.32
2018-04-16T03:30:46.078Z,9.40
2018-04-16T03:33:18.396Z,10.30
2018-04-16T03:35:50.839Z,9.20
2018-04-16T03:38:23.247Z,9.50
2018-04-16T03:40:55.677Z,9.60
2018-04-16T03:43:28.129Z,9.07
2018-04-16T03:46:00.540Z,9.38
2018-04-16T03:48:33.001Z,9.73
2018-04-16T03:51:05.403Z,9.93
2018-04-16T03:53:37.807Z,10.82
2018-04-16T03:56:04.433Z,8.57
2018-04-16T03:58:31.069Z,9.95
2018-04-16T04:00:57.721Z,10.02
2018-04-16T04:03:24.349Z,9.52
2018-04-16T04:05:51.001Z,10.52
2018-04-16T04:08:17.650Z,9.73
2018-04-16T04:10:44.325Z,9.90
2018-04-16T04:13:10.938Z,9.73
2018-04-16T04:15:37.567Z,10.20
2018-04-16T04:18:04.181Z,10.90
2018-04-16T04:20:30.819Z,9.77
2018-04-16T04:23:16.060Z,9.80
2018-04-16T04:25:48.518Z,9.68
2018-04-16T04:28:21.023Z,10.00
2018-04-16T04:30:47.635Z,9.63
2018-04-16T04:33:14.293Z,10.13
2018-04-16T04:35:40.907Z,8.88
2018-04-16T04:38:07.532Z,9.90
2018-04-16T04:40:34.169Z,9.40
2018-04-16T04:43:00.804Z,9.77
2018-04-16T04:45:27.476Z,8.50
2018-04-16T04:47:54.116Z,8.75
2018-04-16T04:50:20.755Z,9.95
2018-04-16T04:52:47.374Z,10.35
2018-04-16T04:55:14.027Z,10.45
2018-04-16T04:57:40.657Z,9.70
2018-04-16T05:00:07.307Z,10.38
2018-04-16T05:02:33.929Z,10.68
2018-04-16T05:05:00.538Z,10.15
2018-04-16T05:07:27.181Z,10.32
2018-04-16T05:09:53.819Z,10.35
2018-04-16T05:12:20.475Z,11.77
2018-04-16T05:14:47.101Z,12.25
2018-04-16T05:17:13.754Z,11.65
2018-04-16T05:19:40.402Z,11.80
2018-04-16T05:22:07.042Z,9.95
2018-04-16T05:24:33.682Z,10.90
2018-04-16T05:27:00.332Z,10.07
2018-04-16T05:29:26.972Z,10.77
2018-04-16T05:31:53.615Z,10.40
2018-04-16T05:34:20.241Z,10.80
2018-04-16T05:36:46.866Z,10.57
2018-04-16T05:39:13.500Z,10.15
2018-04-16T05:41:40.118Z,11.10
2018-04-16T05:44:06.743Z,9.15
2018-04-16T05:46:33.393Z,10.00
2018-04-16T05:49:00.128Z,10.85
2018-04-16T05:51:26.791Z,10.35
2018-04-16T05:53:53.544Z,9.65
2018-04-16T05:56:20.331Z,9.15
2018-04-16T05:58:47.339Z,9.05
2018-04-16T06:01:14.148Z,8.80
2018-04-16T06:03:40.872Z,9.13
2018-04-16T06:06:07.611Z,8.55
2018-04-16T06:08:34.359Z,9.90
2018-04-16T06:11:01.095Z,8.65
2018-04-16T06:13:27.824Z,9.18
2018-04-16T06:15:54.582Z,9.75
2018-04-16T06:18:21.291Z,8.80
2018-04-16T06:20:48.114Z,8.35
2018-04-16T06:23:14.945Z,9.05
2018-04-16T06:25:41.735Z,9.70
2018-04-16T06:28:08.436Z,9.00
2018-04-16T06:30:35.244Z,8.93
2018-04-16T06:33:02.000Z,9.02
2018-04-16T06:35:28.763Z,8.93
2018-04-16T06:37:55.652Z,9.48
2018-04-16T06:40:22.456Z,8.75
2018-04-16T06:42:49.147Z,10.30
2018-04-16T06:45:15.967Z,16.23
2018-04-16T06:47:42.682Z,13.90
2018-04-16T06:50:09.433Z,999.90
2018-04-16T06:52:36.222Z,13.30
2018-04-16T06:55:03.005Z,12.00
2018-04-16T06:57:29.727Z,999.90
2018-04-16T06:59:56.510Z,999.90
2018-04-16T07:02:23.322Z,999.90
2018-04-16T07:04:50.165Z,999.90
2018-04-16T07:07:16.968Z,999.90
2018-04-16T07:09:43.832Z,999.90
2018-04-16T07:12:10.595Z,11.10
2018-04-16T07:14:37.375Z,11.67
2018-04-16T07:17:04.041Z,10.20
2018-04-16T07:19:30.761Z,12.50
2018-04-16T07:21:57.830Z,12.00
2018-04-16T07:24:24.577Z,10.87
2018-04-16T07:26:51.388Z,11.53
2018-04-16T07:29:18.188Z,11.67
2018-04-16T07:31:44.865Z,12.07
2018-04-16T07:34:11.590Z,13.83
2018-04-16T07:36:38.674Z,12.53
2018-04-16T07:39:06.272Z,13.83
2018-04-16T07:41:33.124Z,15.90
2018-04-16T07:43:59.845Z,15.90
2018-04-16T07:46:26.520Z,16.10
2018-04-16T07:48:53.326Z,16.87
2018-04-16T07:51:20.195Z,15.90
2018-04-16T07:53:47.218Z,16.73
2018-04-16T07:56:14.133Z,16.47
2018-04-16T07:58:40.889Z,15.90
2018-04-16T08:01:07.677Z,17.60
2018-04-16T08:03:34.441Z,14.37
2018-04-16T08:06:01.268Z,13.70
2018-04-16T08:08:28.002Z,13.00
2018-04-16T08:10:54.941Z,12.13
2018-04-16T08:13:21.689Z,12.43
2018-04-16T08:15:48.377Z,12.03
2018-04-16T08:18:15.238Z,13.47
2018-04-16T08:20:41.974Z,13.30
2018-04-16T08:23:08.733Z,13.33
2018-04-16T08:25:35.442Z,13.47
2018-04-16T08:28:02.220Z,12.40
2018-04-16T08:30:29.037Z,12.60
2018-04-16T08:32:55.862Z,14.07
2018-04-16T08:35:22.619Z,11.90
2018-04-16T08:37:49.387Z,11.03
2018-04-16T08:40:17.054Z,10.90
2018-04-16T08:42:43.783Z,11.00
2018-04-16T08:45:10.508Z,12.10
2018-04-16T08:47:37.341Z,11.40
2018-04-16T08:50:04.034Z,9.60
2018-04-16T08:52:30.767Z,9.50
2018-04-16T08:54:57.470Z,8.30
2018-04-16T08:57:24.438Z,10.50
2018-04-16T08:59:51.300Z,9.83
2018-04-16T09:02:18.180Z,8.67
2018-04-16T09:04:44.838Z,9.33
2018-04-16T09:07:11.455Z,9.70
2018-04-16T09:09:38.134Z,11.23
2018-04-16T09:12:04.746Z,12.77
2018-04-16T09:14:31.409Z,12.40
2018-04-16T09:16:58.041Z,12.40
2018-04-16T09:19:24.700Z,9.03
2018-04-16T09:21:51.322Z,10.23
2018-04-16T09:24:18.493Z,8.63
2018-04-16T09:26:45.114Z,11.00
2018-04-16T09:29:11.741Z,9.33
2018-04-16T09:31:38.382Z,9.37
2018-04-16T09:34:04.999Z,9.17
2018-04-16T09:36:32.335Z,12.80
2018-04-16T09:38:59.589Z,12.50
2018-04-16T09:41:26.219Z,12.00
2018-04-16T09:43:52.866Z,15.10
2018-04-16T09:46:19.522Z,15.93
2018-04-16T09:48:46.158Z,13.70
2018-04-16T09:51:12.798Z,17.63
2018-04-16T09:53:39.445Z,15.90
2018-04-16T09:56:06.087Z,17.40
2018-04-16T09:58:33.461Z,16.50
2018-04-16T10:01:00.141Z,16.80
2018-04-16T10:03:26.731Z,18.33
2018-04-16T10:05:53.374Z,17.00
2018-04-16T10:08:20.025Z,18.60
2018-04-16T10:10:46.638Z,18.67
2018-04-16T10:13:13.350Z,16.13
2018-04-16T10:15:40.019Z,15.50
2018-04-16T10:18:06.653Z,16.77
2018-04-16T10:20:33.282Z,17.07
2018-04-16T10:23:00.825Z,18.00
2018-04-16T10:25:27.450Z,17.03
2018-04-16T10:27:54.209Z,16.13
2018-04-16T10:30:20.829Z,14.30
2018-04-16T10:32:47.506Z,14.73
2018-04-16T10:35:14.142Z,15.87
2018-04-16T10:37:40.803Z,16.10
2018-04-16T10:40:07.434Z,14.13
2018-04-16T10:42:34.083Z,13.33
2018-04-16T10:45:00.717Z,13.67
2018-04-16T10:47:27.371Z,12.40
2018-04-16T10:49:54.675Z,11.50
2018-04-16T10:52:21.286Z,11.70
2018-04-16T10:54:48.009Z,11.60
2018-04-16T10:57:14.659Z,11.10
2018-04-16T10:59:41.953Z,12.60
2018-04-16T11:02:08.586Z,9.73
2018-04-16T11:04:35.222Z,10.27
2018-04-16T11:07:01.846Z,10.67
2018-04-16T11:09:28.495Z,10.70
2018-04-16T11:11:55.118Z,10.37
2018-04-16T11:14:21.772Z,8.70
2018-04-16T11:16:48.417Z,8.73
2018-04-16T11:19:15.065Z,9.33
2018-04-16T11:21:41.688Z,9.60
2018-04-16T11:24:08.304Z,9.63
2018-04-16T11:26:34.961Z,8.93
2018-04-16T11:29:01.621Z,8.30
2018-04-16T11:31:28.267Z,8.90
2018-04-16T11:33:54.941Z,8.70
2018-04-16T11:36:21.574Z,6.23
2018-04-16T11:38:48.218Z,6.33
2018-04-16T11:41:14.840Z,6.50
2018-04-16T11:43:41.499Z,7.07
2018-04-16T11:46:08.132Z,7.23
2018-04-16T11:48:34.797Z,6.73
2018-04-16T11:51:02.015Z,6.87
2018-04-16T11:53:28.629Z,7.10
2018-04-16T11:55:55.250Z,7.97
2018-04-16T11:58:21.884Z,6.30
2018-04-16T12:00:48.557Z,8.77
2018-04-16T12:03:15.165Z,6.60
2018-04-16T12:05:41.831Z,7.13
2018-04-16T12:08:08.459Z,7.40
2018-04-16T12:10:35.066Z,7.27
2018-04-16T12:13:01.706Z,6.97
2018-04-16T12:15:28.320Z,7.20
2018-04-16T12:17:54.998Z,6.20
2018-04-16T12:20:21.626Z,5.90
2018-04-16T12:22:48.315Z,6.37
2018-04-16T12:25:14.986Z,6.77
2018-04-16T12:27:41.623Z,6.70
2018-04-16T12:30:08.254Z,5.97
2018-04-16T12:32:34.892Z,6.63
2018-04-16T12:35:01.546Z,6.23
2018-04-16T12:37:28.166Z,6.23
2018-04-16T12:39:54.783Z,6.00
2018-04-16T12:42:21.417Z,6.10
2018-04-16T12:44:48.030Z,6.43
2018-04-16T12:47:14.703Z,6.60
2018-04-16T12:49:41.342Z,6.00
2018-04-16T12:52:07.982Z,6.47
2018-04-16T12:54:34.611Z,7.73
2018-04-16T12:57:01.231Z,7.57
2018-04-16T12:59:27.853Z,7.10
2018-04-16T13:01:54.475Z,8.10
2018-04-16T13:04:21.155Z,7.93
2018-04-16T13:06:47.778Z,9.30
2018-04-16T13:09:14.443Z,8.97
2018-04-16T13:11:41.141Z,8.73
2018-04-16T13:14:07.758Z,9.53
2018-04-16T13:16:34.370Z,9.57
2018-04-16T13:19:01.031Z,8.93
2018-04-16T13:21:27.709Z,11.27
2018-04-16T13:23:54.302Z,9.33
2018-04-16T13:26:20.925Z,10.27
2018-04-16T13:28:47.574Z,11.17
2018-04-16T13:31:14.215Z,9.60
2018-04-16T13:33:40.866Z,8.80
2018-04-16T13:36:07.506Z,10.50
2018-04-16T13:38:34.140Z,8.90
2018-04-16T13:41:01.471Z,10.20
2018-04-16T13:43:28.149Z,10.23
2018-04-16T13:45:54.774Z,9.50
2018-04-16T13:48:21.432Z,10.73
2018-04-16T13:50:48.089Z,11.00
2018-04-16T13:53:14.714Z,10.10
2018-04-16T13:55:41.356Z,11.10
2018-04-16T13:58:07.997Z,12.33
2018-04-16T14:00:34.625Z,11.20
2018-04-16T14:03:01.239Z,10.07
2018-04-16T14:05:27.879Z,10.60
2018-04-16T14:07:54.497Z,9.73
2018-04-16T14:10:21.171Z,10.10
2018-04-16T14:12:47.807Z,10.60
2018-04-16T14:15:14.457Z,10.70
2018-04-16T14:17:41.135Z,9.77
2018-04-16T14:20:07.777Z,10.20
2018-04-16T14:22:34.432Z,11.27
2018-04-16T14:25:01.059Z,9.43
2018-04-16T14:27:27.707Z,9.07
2018-04-16T14:29:54.346Z,9.47
2018-04-16T14:32:21.681Z,9.00
2018-04-16T14:34:48.299Z,9.20
2018-04-16T14:37:14.951Z,9.80
2018-04-16T14:39:41.580Z,11.40
2018-04-16T14:42:08.220Z,11.40
2018-04-16T14:44:34.866Z,11.07
2018-04-16T14:47:01.519Z,11.77
2018-04-16T14:49:28.167Z,12.00
2018-04-16T14:51:54.806Z,12.27
2018-04-16T14:54:21.462Z,11.30
2018-04-16T14:56:48.134Z,10.83
2018-04-16T14:59:14.718Z,12.33
2018-04-16T15:01:41.345Z,11.67
2018-04-16T15:04:08.007Z,10.63
2018-04-16T15:06:34.623Z,11.70
2018-04-16T15:09:01.303Z,12.23
2018-04-16T15:11:27.923Z,11.83
2018-04-16T15:13:54.581Z,10.40
2018-04-16T15:16:21.271Z,11.07
2018-04-16T15:18:47.919Z,10.97
2018-04-16T15:21:14.555Z,13.70
2018-04-16T15:23:42.008Z,12.97
2018-04-16T15:26:08.659Z,13.97
2018-04-16T15:28:35.403Z,10.70
2018-04-16T15:31:02.039Z,11.20
2018-04-16T15:33:28.675Z,11.77
2018-04-16T15:35:55.426Z,12.07
2018-04-16T15:38:22.058Z,11.20
2018-04-16T15:40:48.712Z,10.40
2018-04-16T15:43:15.405Z,10.13
2018-04-16T15:45:42.055Z,9.73
2018-04-16T15:48:08.714Z,10.93
2018-04-16T15:50:35.337Z,10.33
2018-04-16T15:53:01.992Z,10.80
2018-04-16T15:55:28.611Z,9.87
2018-04-16T15:57:55.272Z,10.57
2018-04-16T16:00:21.972Z,10.27
2018-04-16T16:02:48.589Z,10.07
2018-04-16T16:05:15.351Z,10.30
2018-04-16T16:07:41.982Z,9.63
2018-04-16T16:10:08.646Z,9.65
2018-04-16T16:12:35.280Z,10.43
2018-04-16T16:15:01.972Z,10.75
2018-04-16T16:17:28.558Z,10.05
2018-04-16T16:19:55.217Z,9.40
2018-04-16T16:22:21.907Z,9.77
2018-04-16T16:24:48.525Z,9.07
2018-04-16T16:27:15.201Z,8.60
2018-04-16T16:29:41.830Z,8.63
2018-04-16T16:32:08.484Z,9.20
2018-04-16T16:34:35.114Z,8.90
2018-04-16T16:37:01.775Z,8.63
2018-04-16T16:39:28.393Z,8.05
2018-04-16T16:41:55.134Z,7.90
2018-04-16T16:44:21.712Z,7.07
2018-04-16T16:46:48.355Z,7.03
2018-04-16T16:49:15.010Z,7.20
2018-04-16T16:51:41.685Z,7.03
2018-04-16T16:54:08.348Z,7.20
2018-04-16T16:56:34.980Z,6.60
2018-04-16T16:59:01.952Z,6.70
2018-04-16T17:01:29.066Z,7.00
2018-04-16T17:03:56.062Z,6.78
2018-04-16T17:06:22.742Z,6.22
2018-04-16T17:08:50.560Z,7.28
2018-04-16T17:11:17.197Z,6.65
2018-04-16T17:13:44.011Z,5.70
2018-04-16T17:16:11.350Z,5.35
2018-04-16T17:18:38.029Z,5.65
2018-04-16T17:21:08.566Z,4.78
2018-04-16T17:23:35.388Z,4.60
2018-04-16T17:26:06.051Z,4.05
2018-04-16T17:28:34.961Z,4.30
2018-04-16T17:31:01.661Z,4.43
2018-04-16T17:33:29.170Z,6.00
2018-04-16T17:35:55.891Z,5.10
2018-04-16T17:38:22.637Z,4.62
2018-04-16T17:40:49.316Z,5.97
2018-04-16T17:43:16.006Z,4.93
2018-04-16T17:45:42.696Z,5.60
2018-04-16T17:48:09.390Z,6.90
2018-04-16T17:50:36.111Z,6.00
2018-04-16T17:53:02.775Z,6.78
2018-04-16T17:55:30.437Z,3.70
2018-04-16T17:57:57.107Z,3.20
2018-04-16T18:00:24.094Z,3.30
2018-04-16T18:02:50.914Z,3.97
2018-04-16T18:05:17.678Z,3.20
2018-04-16T18:07:44.423Z,3.80
2018-04-16T18:10:11.274Z,3.95
2018-04-16T18:12:38.294Z,3.05
2018-04-16T18:15:05.157Z,3.20
2018-04-16T18:17:31.962Z,3.62
2018-04-16T18:19:58.928Z,2.85
2018-04-16T18:22:25.814Z,2.60
2018-04-16T18:24:57.121Z,3.12
2018-04-16T18:27:24.467Z,2.75
2018-04-16T18:29:51.442Z,3.30
2018-04-16T18:32:18.478Z,3.35
2018-04-16T18:34:46.148Z,3.33
2018-04-16T18:37:13.316Z,3.10
2018-04-16T18:39:40.047Z,2.90
2018-04-16T18:42:06.799Z,3.50
2018-04-16T18:44:33.581Z,3.45
2018-04-16T18:47:01.957Z,3.10
2018-04-16T18:49:30.233Z,3.20
2018-04-16T18:51:57.016Z,2.70
2018-04-16T18:54:23.807Z,2.80
2018-04-16T18:56:50.626Z,3.15
2018-04-16T18:59:17.519Z,3.72
2018-04-16T19:01:44.342Z,3.62
2018-04-16T19:04:11.233Z,3.30
2018-04-16T19:06:38.230Z,2.97
2018-04-16T19:09:05.924Z,3.72
2018-04-16T19:11:33.014Z,2.95
2018-04-16T19:13:59.763Z,2.80
2018-04-16T19:16:27.449Z,2.70
2018-04-16T19:18:54.620Z,3.12
2018-04-16T19:21:27.108Z,2.75
2018-04-16T19:23:53.844Z,3.10
2018-04-16T19:26:20.637Z,3.30
2018-04-16T19:28:47.841Z,3.80
2018-04-16T19:31:15.313Z,3.12
2018-04-16T19:34:01.971Z,3.53
2018-04-16T19:36:28.799Z,3.15
2018-04-16T19:38:56.942Z,3.35
2018-04-16T19:41:24.944Z,2.90
2018-04-16T19:43:51.737Z,3.03
2018-04-16T19:46:18.648Z,2.80
2018-04-16T19:48:51.379Z,3.58
2018-04-16T19:51:18.368Z,3.12
2018-04-16T19:53:46.411Z,3.10
2018-04-16T19:56:19.014Z,3.33
2018-04-16T19:58:45.823Z,3.83
2018-04-16T20:01:12.700Z,4.10
2018-04-16T20:03:50.267Z,4.50
2018-04-16T20:06:18.084Z,3.50
2018-04-16T20:08:45.364Z,3.55
2018-04-16T20:11:12.216Z,3.90
2018-04-16T20:13:39.231Z,3.85
2018-04-16T20:16:05.998Z,3.42
2018-04-16T20:18:33.769Z,3.55
2018-04-16T20:21:01.037Z,3.90
2018-04-16T20:23:27.851Z,4.07
2018-04-16T20:25:55.651Z,4.10
2018-04-16T20:28:22.452Z,4.07
2018-04-16T20:30:51.193Z,3.58
2018-04-16T20:33:17.976Z,4.07
2018-04-16T20:35:44.798Z,4.25
2018-04-16T20:38:11.646Z,5.22
2018-04-16T20:40:38.414Z,4.62
2018-04-16T20:43:05.968Z,4.07
2018-04-16T20:45:34.937Z,4.00
2018-04-16T20:48:01.787Z,4.00
2018-04-16T20:50:29.386Z,3.60
2018-04-16T20:52:56.747Z,4.05
2018-04-16T20:55:24.777Z,4.22
2018-04-16T20:57:52.217Z,4.50
2018-04-16T21:00:19.856Z,4.70
2018-04-16T21:02:50.574Z,4.50
2018-04-16T21:05:17.843Z,4.57
2018-04-16T21:07:44.621Z,4.10
2018-04-16T21:10:13.304Z,3.95
2018-04-16T21:12:40.050Z,4.05
2018-04-16T21:15:06.857Z,4.53
2018-04-16T21:17:33.622Z,3.72
2018-04-16T21:20:00.420Z,4.97
2018-04-16T21:22:27.737Z,4.50
2018-04-16T21:24:54.884Z,4.15
2018-04-16T21:27:21.814Z,4.30
2018-04-16T21:29:48.667Z,4.62
2018-04-16T21:32:16.454Z,4.75
2018-04-16T21:34:44.092Z,5.40
2018-04-16T21:37:10.846Z,4.70
2018-04-16T21:39:37.536Z,4.55
2018-04-16T21:42:04.250Z,4.87
2018-04-16T21:44:31.414Z,4.45
2018-04-16T21:46:58.181Z,5.15
2018-04-16T21:49:24.924Z,4.68
2018-04-16T21:51:51.850Z,5.55
2018-04-16T21:54:18.646Z,4.60
2018-04-16T21:56:45.422Z,6.20
2018-04-16T21:59:12.182Z,5.68
2018-04-16T22:01:39.317Z,5.68
2018-04-16T22:04:06.204Z,5.60
2018-04-16T22:06:33.181Z,4.97
2018-04-16T22:09:00.979Z,6.25
2018-04-16T22:11:30.305Z,5.50
2018-04-16T22:13:57.113Z,5.25
2018-04-16T22:16:24.209Z,6.28
2018-04-16T22:18:50.987Z,5.65
2018-04-16T22:21:17.740Z,4.62
2018-04-16T22:23:44.502Z,5.00
2018-04-16T22:26:11.364Z,6.28
2018-04-16T22:28:38.408Z,5.80
2018-04-16T22:31:05.184Z,5.00
2018-04-16T22:33:32.043Z,6.30
2018-04-16T22:35:58.907Z,5.20
2018-04-16T22:38:25.686Z,6.30
2018-04-16T22:40:52.569Z,4.70
2018-04-16T22:43:19.369Z,6.43
2018-04-16T22:45:46.116Z,6.03
2018-04-16T22:48:12.844Z,5.68
2018-04-16T22:50:40.022Z,6.57
2018-04-16T22:53:07.061Z,5.22
2018-04-16T22:55:33.888Z,5.37
2018-04-16T22:58:00.800Z,5.35
2018-04-16T23:00:27.571Z,5.35
2018-04-16T23:02:54.260Z,4.90
2018-04-16T23:05:21.111Z,5.00
2018-04-16T23:07:47.813Z,5.55
2018-04-16T23:10:14.579Z,4.90
2018-04-16T23:12:41.414Z,6.35
2018-04-16T23:15:08.175Z,5.82
2018-04-16T23:17:34.896Z,5.40
2018-04-16T23:20:01.998Z,5.55
2018-04-16T23:22:28.993Z,6.07
2018-04-16T23:24:55.992Z,5.70
2018-04-16T23:27:22.738Z,5.35
2018-04-16T23:29:49.589Z,5.95
2018-04-16T23:32:16.357Z,6.10
2018-04-16T23:34:43.176Z,5.90
2018-04-16T23:37:11.441Z,5.85
2018-04-16T23:39:38.189Z,6.78
2018-04-16T23:42:05.404Z,6.12
2018-04-16T23:44:36.150Z,6.15
2018-04-16T23:47:03.434Z,6.10
2018-04-16T23:49:30.286Z,6.10
2018-04-16T23:51:57.003Z,6.32
2018-04-16T23:54:23.930Z,6.10
2018-04-16T23:56:51.253Z,5.57
2018-04-16T23:59:18.815Z,6.25
